createdAt,value
2023-03-02T00:02:15.217Z,99.90
2023-03-02T00:04:56.880Z,99.90
2023-03-02T00:07:34.007Z,99.90
2023-03-02T00:10:02.283Z,99.90
2023-03-02T00:12:32.777Z,99.90
2023-03-02T00:15:00.214Z,99.90
2023-03-02T00:17:30.134Z,99.90
2023-03-02T00:20:11.642Z,99.90
2023-03-02T00:22:41.984Z,99.90
2023-03-02T00:25:11.427Z,99.90
2023-03-02T00:27:39.108Z,99.90
2023-03-02T00:30:09.283Z,99.90
2023-03-02T00:32:36.327Z,99.90
2023-03-02T00:35:04.622Z,99.90
2023-03-02T00:37:31.836Z,99.90
2023-03-02T00:39:59.409Z,99.90
2023-03-02T00:42:26.317Z,99.90
2023-03-02T00:44:53.547Z,99.90
2023-03-02T00:47:20.667Z,99.90
2023-03-02T00:49:49.376Z,99.90
2023-03-02T00:52:17.394Z,99.90
2023-03-02T00:54:44.805Z,99.90
2023-03-02T00:57:11.960Z,99.90
2023-03-02T00:59:39.757Z,99.90
2023-03-02T01:02:16.852Z,99.90
2023-03-02T01:04:46.210Z,99.90
2023-03-02T01:07:20.712Z,99.90
2023-03-02T01:09:50.977Z,99.90
2023-03-02T01:12:18.152Z,99.90
2023-03-02T01:14:48.669Z,99.90
2023-03-02T01:17:16.343Z,99.90
2023-03-02T01:19:43.855Z,99.90
2023-03-02T01:22:11.252Z,99.90
2023-03-02T01:24:38.400Z,99.90
2023-03-02T01:27:05.611Z,99.90
2023-03-02T01:29:32.946Z,99.90
2023-03-02T01:32:00.096Z,99.90
2023-03-02T01:34:29.544Z,99.90
2023-03-02T01:36:56.940Z,99.90
2023-03-02T01:39:24.187Z,99.90
2023-03-02T01:41:53.323Z,99.90
2023-03-02T01:44:52.120Z,99.90
2023-03-02T01:47:39.604Z,99.90
2023-03-02T01:50:21.111Z,99.90
2023-03-02T01:52:50.594Z,99.90
2023-03-02T01:55:25.861Z,99.90
2023-03-02T01:57:56.542Z,99.90
2023-03-02T02:00:29.885Z,99.90
2023-03-02T02:03:10.682Z,99.90
2023-03-02T02:05:46.901Z,99.90
2023-03-02T02:08:14.132Z,99.90
2023-03-02T02:10:41.886Z,99.90
2023-03-02T02:13:11.870Z,99.90
2023-03-02T02:15:41.465Z,99.90
2023-03-02T02:18:09.261Z,99.90
2023-03-02T02:20:47.754Z,99.90
2023-03-02T02:23:29.703Z,99.90
2023-03-02T02:26:28.912Z,99.90
2023-03-02T02:29:22.588Z,99.90
2023-03-02T02:31:57.120Z,99.90
2023-03-02T02:34:30.521Z,99.90
2023-03-02T02:37:11.747Z,99.90
2023-03-02T02:39:47.776Z,99.90
2023-03-02T02:42:29.766Z,99.90
2023-03-02T02:45:02.820Z,99.90
2023-03-02T02:47:30.812Z,99.90
2023-03-02T02:49:58.749Z,99.90
2023-03-02T02:52:29.304Z,99.90
2023-03-02T02:54:59.083Z,99.90
2023-03-02T02:57:29.893Z,99.90
2023-03-02T03:00:01.257Z,99.90
2023-03-02T03:02:47.573Z,99.90
2023-03-02T03:05:16.415Z,99.90
2023-03-02T03:07:44.875Z,99.90
2023-03-02T03:10:28.295Z,99.90
2023-03-02T03:12:56.515Z,99.90
2023-03-02T03:15:23.654Z,99.90
2023-03-02T03:17:59.192Z,99.90
2023-03-02T03:20:29.200Z,99.90
2023-03-02T03:22:59.374Z,99.90
2023-03-02T03:25:27.541Z,99.90
2023-03-02T03:27:55.701Z,99.90
2023-03-02T03:30:22.898Z,99.90
2023-03-02T03:32:50.451Z,99.90
2023-03-02T03:35:17.546Z,99.90
2023-03-02T03:37:45.808Z,99.90
2023-03-02T03:40:14.884Z,99.90
2023-03-02T03:42:44.199Z,99.90
2023-03-02T03:45:13.133Z,99.90
2023-03-02T03:47:41.873Z,99.90
2023-03-02T03:50:10.630Z,99.90
2023-03-02T03:52:38.500Z,99.90
2023-03-02T03:55:16.801Z,99.90
2023-03-02T03:57:46.215Z,99.90
2023-03-02T04:00:19.015Z,99.90
2023-03-02T04:02:55.390Z,99.90
2023-03-02T04:05:24.369Z,99.90
2023-03-02T04:07:54.084Z,99.90
2023-03-02T04:10:22.125Z,99.90
2023-03-02T04:12:51.936Z,99.90
2023-03-02T04:15:19.354Z,99.90
2023-03-02T04:17:48.327Z,99.90
2023-03-02T04:20:20.294Z,99.90
2023-03-02T04:22:54.040Z,99.90
2023-03-02T04:25:26.170Z,99.90
2023-03-02T04:27:57.524Z,99.90
2023-03-02T04:30:29.436Z,99.90
2023-03-02T04:32:57.721Z,99.90
2023-03-02T04:35:27.671Z,99.90
2023-03-02T04:37:55.110Z,99.90
2023-03-02T04:40:22.410Z,99.90
2023-03-02T04:42:49.643Z,99.90
2023-03-02T04:45:17.948Z,99.90
2023-03-02T04:47:45.389Z,99.90
2023-03-02T04:50:15.050Z,99.90
2023-03-02T04:52:42.587Z,99.90
2023-03-02T04:55:18.052Z,99.90
2023-03-02T04:57:45.419Z,99.90
2023-03-02T05:00:13.168Z,99.90
2023-03-02T05:02:41.188Z,99.90
2023-03-02T05:05:17.367Z,99.90
2023-03-02T05:07:44.814Z,99.90
2023-03-02T05:10:14.417Z,99.90
2023-03-02T05:13:00.912Z,99.90
2023-03-02T05:15:40.784Z,99.90
2023-03-02T05:18:11.363Z,99.90
2023-03-02T05:20:40.121Z,99.90
2023-03-02T05:23:11.005Z,99.90
2023-03-02T05:25:39.139Z,99.90
2023-03-02T05:28:06.400Z,99.90
2023-03-02T05:30:37.480Z,99.90
2023-03-02T05:33:05.249Z,99.90
2023-03-02T05:35:32.218Z,99.90
2023-03-02T05:37:59.505Z,99.90
2023-03-02T05:40:27.244Z,99.90
2023-03-02T05:42:54.645Z,99.90
2023-03-02T05:45:29.922Z,99.90
2023-03-02T05:47:57.674Z,99.90
2023-03-02T05:50:24.805Z,99.90
2023-03-02T05:52:52.139Z,99.90
2023-03-02T05:55:20.061Z,99.90
2023-03-02T05:57:49.353Z,99.90
2023-03-02T06:00:18.503Z,99.90
2023-03-02T06:02:46.156Z,99.90
2023-03-02T06:05:17.672Z,99.90
2023-03-02T06:07:46.252Z,99.90
2023-03-02T06:10:13.847Z,99.90
2023-03-02T06:12:41.359Z,99.90
2023-03-02T06:15:10.262Z,99.90
2023-03-02T06:17:37.734Z,99.90
2023-03-02T06:20:10.869Z,99.90
2023-03-02T06:22:45.174Z,99.90
2023-03-02T06:25:20.128Z,99.90
2023-03-02T06:27:51.786Z,99.90
2023-03-02T06:30:22.332Z,99.90
2023-03-02T06:32:50.067Z,99.90
2023-03-02T06:35:17.547Z,99.90
2023-03-02T06:37:45.043Z,99.90
2023-03-02T06:40:13.858Z,99.90
2023-03-02T06:42:42.791Z,99.90
2023-03-02T06:45:11.040Z,99.90
2023-03-02T06:47:38.765Z,99.90
2023-03-02T06:50:07.525Z,99.90
2023-03-02T06:52:35.450Z,99.90
2023-03-02T06:55:05.010Z,99.90
2023-03-02T06:57:34.227Z,99.90
2023-03-02T07:00:15.744Z,99.90
2023-03-02T07:02:46.793Z,99.90
2023-03-02T07:05:14.031Z,99.90
2023-03-02T07:07:42.093Z,99.90
2023-03-02T07:10:12.187Z,99.90
2023-03-02T07:12:41.755Z,99.90
2023-03-02T07:15:11.233Z,99.90
2023-03-02T07:17:39.716Z,99.90
2023-03-02T07:20:08.064Z,99.90
2023-03-02T07:22:35.440Z,99.90
2023-03-02T07:25:03.180Z,99.90
2023-03-02T07:27:31.677Z,99.90
2023-03-02T07:29:58.656Z,99.90
2023-03-02T07:32:26.382Z,99.90
2023-03-02T07:34:53.531Z,99.90
2023-03-02T07:37:21.262Z,99.90
2023-03-02T07:39:49.322Z,99.90
2023-03-02T07:42:17.323Z,99.90
2023-03-02T07:44:47.851Z,99.90
2023-03-02T07:47:15.329Z,99.90
2023-03-02T07:49:42.409Z,99.90
2023-03-02T07:52:09.816Z,99.90
2023-03-02T07:54:37.050Z,99.90
2023-03-02T07:57:04.730Z,99.90
2023-03-02T07:59:31.791Z,99.90
2023-03-02T08:01:59.258Z,99.90
2023-03-02T08:04:26.281Z,99.90
2023-03-02T08:06:53.613Z,99.90
2023-03-02T08:09:20.687Z,99.90
2023-03-02T08:11:47.939Z,99.90
2023-03-02T08:14:15.108Z,99.90
2023-03-02T08:16:42.536Z,99.90
2023-03-02T08:19:10.448Z,99.90
2023-03-02T08:21:37.799Z,99.90
2023-03-02T08:24:05.529Z,99.90
2023-03-02T08:26:32.885Z,99.90
2023-03-02T08:29:00.320Z,99.90
2023-03-02T08:31:27.720Z,99.90
2023-03-02T08:33:54.857Z,99.90
2023-03-02T08:36:22.599Z,99.90
2023-03-02T08:38:50.150Z,99.90
2023-03-02T08:41:21.003Z,99.90
2023-03-02T08:43:49.221Z,99.90
2023-03-02T08:46:18.729Z,99.90
2023-03-02T08:48:46.902Z,99.90
2023-03-02T08:51:24.420Z,99.90
2023-03-02T08:53:57.170Z,99.90
2023-03-02T08:56:32.163Z,99.90
2023-03-02T08:59:03.920Z,99.90
2023-03-02T09:01:35.368Z,99.90
2023-03-02T09:04:05.556Z,99.90
2023-03-02T09:06:36.992Z,99.90
2023-03-02T09:09:05.398Z,99.90
2023-03-02T09:11:34.094Z,99.90
2023-03-02T09:14:02.524Z,99.90
2023-03-02T09:16:30.203Z,99.90
2023-03-02T09:18:57.293Z,99.90
2023-03-02T09:21:25.536Z,99.90
2023-03-02T09:23:57.903Z,99.90
2023-03-02T09:26:28.552Z,99.90
2023-03-02T09:28:56.579Z,99.90
2023-03-02T09:31:24.427Z,99.90
2023-03-02T09:33:51.559Z,99.90
2023-03-02T09:36:22.952Z,99.90
2023-03-02T09:38:50.713Z,99.90
2023-03-02T09:41:20.762Z,99.90
2023-03-02T09:44:43.816Z,99.90
2023-03-02T09:47:38.098Z,99.90
2023-03-02T09:50:25.441Z,99.90
2023-03-02T09:53:27.627Z,99.90
2023-03-02T09:56:01.751Z,99.90
2023-03-02T09:58:37.564Z,99.90
2023-03-02T10:01:17.445Z,99.90
2023-03-02T10:04:03.141Z,99.90
2023-03-02T10:06:30.589Z,99.90
2023-03-02T10:08:58.476Z,99.90
2023-03-02T10:12:12.073Z,99.90
2023-03-02T10:14:52.011Z,99.90
2023-03-02T10:17:48.221Z,99.90
2023-03-02T10:20:34.095Z,99.90
2023-03-02T10:23:15.893Z,99.90
2023-03-02T10:25:52.372Z,99.90
2023-03-02T10:28:24.318Z,99.90
2023-03-02T10:31:10.845Z,99.90
2023-03-02T10:33:42.044Z,99.90
2023-03-02T10:36:25.266Z,99.90
2023-03-02T10:39:00.859Z,99.90
2023-03-02T10:41:41.136Z,99.90
2023-03-02T10:44:19.113Z,99.90
2023-03-02T10:46:47.132Z,99.90
2023-03-02T10:49:43.028Z,97.50
2023-03-02T10:52:21.354Z,93.80
2023-03-02T10:54:49.000Z,94.80
2023-03-02T10:57:32.605Z,96.10
2023-03-02T11:00:22.223Z,99.90
2023-03-02T11:03:21.402Z,99.90
2023-03-02T11:05:49.192Z,99.90
2023-03-02T11:08:25.997Z,98.70
2023-03-02T11:11:01.466Z,99.90
2023-03-02T11:13:32.940Z,93.00
2023-03-02T11:16:22.336Z,98.50
2023-03-02T11:18:57.325Z,96.80
2023-03-02T11:21:58.335Z,96.30
2023-03-02T11:24:39.288Z,89.90
2023-03-02T11:27:16.953Z,88.70
2023-03-02T11:29:54.609Z,98.70
2023-03-02T11:32:48.412Z,99.90
2023-03-02T11:35:44.514Z,90.00
2023-03-02T11:38:25.087Z,89.00
2023-03-02T11:41:17.701Z,95.80
2023-03-02T11:43:44.909Z,98.90
2023-03-02T11:46:26.430Z,98.90
2023-03-02T11:49:01.102Z,99.90
2023-03-02T11:51:36.027Z,99.90
2023-03-02T11:54:31.884Z,97.30
2023-03-02T11:57:00.448Z,95.80
2023-03-02T11:59:30.514Z,94.60
2023-03-02T12:02:00.643Z,95.60
2023-03-02T12:04:36.468Z,93.30
2023-03-02T12:07:23.177Z,95.40
2023-03-02T12:10:24.014Z,99.10
2023-03-02T12:13:28.099Z,99.30
2023-03-02T12:15:56.361Z,96.80
2023-03-02T12:18:23.780Z,99.90
2023-03-02T12:21:05.180Z,98.80
2023-03-02T12:23:43.983Z,90.10
2023-03-02T12:26:20.317Z,98.30
2023-03-02T12:29:11.372Z,99.20
2023-03-02T12:31:47.336Z,99.60
2023-03-02T12:34:23.995Z,99.90
2023-03-02T12:36:59.538Z,99.90
2023-03-02T12:39:38.962Z,99.90
2023-03-02T12:42:40.808Z,89.80
2023-03-02T12:45:23.748Z,96.40
2023-03-02T12:48:03.267Z,99.90
2023-03-02T12:50:37.607Z,99.90
2023-03-02T12:53:17.464Z,94.80
2023-03-02T12:55:46.510Z,98.10
2023-03-02T12:58:29.149Z,92.00
2023-03-02T13:01:02.541Z,91.50
2023-03-02T13:03:31.566Z,90.70
2023-03-02T13:06:15.143Z,90.50
2023-03-02T13:08:52.769Z,89.00
2023-03-02T13:11:35.932Z,88.00
2023-03-02T13:14:19.403Z,99.90
2023-03-02T13:17:05.567Z,99.70
2023-03-02T13:19:33.756Z,99.40
2023-03-02T13:22:01.393Z,90.60
2023-03-02T13:25:03.692Z,95.90
2023-03-02T13:27:33.880Z,99.90
2023-03-02T13:30:37.079Z,99.90
2023-03-02T13:33:23.035Z,99.90
2023-03-02T13:35:50.744Z,99.90
2023-03-02T13:38:21.853Z,95.80
2023-03-02T13:40:52.535Z,99.30
2023-03-02T13:43:28.965Z,99.90
2023-03-02T13:46:03.486Z,88.80
2023-03-02T13:48:32.290Z,99.80
2023-03-02T13:51:14.020Z,98.10
2023-03-02T13:53:50.830Z,92.40
2023-03-02T13:56:18.906Z,91.80
2023-03-02T13:58:46.789Z,92.10
2023-03-02T14:01:13.857Z,94.00
2023-03-02T14:03:41.133Z,99.90
2023-03-02T14:06:09.436Z,99.90
2023-03-02T14:08:36.716Z,91.10
2023-03-02T14:11:05.431Z,95.80
2023-03-02T14:13:45.240Z,90.00
2023-03-02T14:16:17.780Z,95.90
2023-03-02T14:18:52.233Z,99.90
2023-03-02T14:21:25.321Z,94.00
2023-03-02T14:23:54.118Z,99.70
2023-03-02T14:26:38.269Z,97.20
2023-03-02T14:29:34.393Z,87.10
2023-03-02T14:32:07.516Z,91.00
2023-03-02T14:34:37.267Z,92.30
2023-03-02T14:37:08.681Z,92.50
2023-03-02T14:39:43.111Z,91.80
2023-03-02T14:42:18.302Z,95.70
2023-03-02T14:44:48.340Z,93.40
2023-03-02T14:47:19.363Z,91.20
2023-03-02T14:49:47.063Z,94.70
2023-03-02T14:52:35.655Z,92.00
2023-03-02T14:55:18.280Z,96.00
2023-03-02T14:57:45.856Z,98.90
2023-03-02T15:00:22.618Z,93.70
2023-03-02T15:02:50.995Z,98.80
2023-03-02T15:05:19.194Z,96.20
2023-03-02T15:07:47.076Z,94.80
2023-03-02T15:10:19.304Z,98.70
2023-03-02T15:12:46.560Z,96.30
2023-03-02T15:15:13.863Z,98.30
2023-03-02T15:17:41.627Z,95.90
2023-03-02T15:20:16.837Z,96.50
2023-03-02T15:22:43.973Z,96.10
2023-03-02T15:25:11.426Z,96.60
2023-03-02T15:27:38.420Z,96.80
2023-03-02T15:30:06.674Z,97.50
2023-03-02T15:32:33.766Z,98.20
2023-03-02T15:35:03.231Z,98.60
2023-03-02T15:37:30.780Z,98.70
2023-03-02T15:39:58.140Z,99.20
2023-03-02T15:42:25.392Z,99.90
2023-03-02T15:44:52.602Z,99.90
2023-03-02T15:47:19.756Z,99.90
2023-03-02T15:49:46.908Z,99.90
2023-03-02T15:52:14.272Z,99.90
2023-03-02T15:54:44.975Z,99.90
2023-03-02T15:57:12.024Z,99.90
2023-03-02T15:59:39.609Z,99.90
2023-03-02T16:02:07.288Z,99.90
2023-03-02T16:04:34.473Z,99.90
2023-03-02T16:07:02.630Z,99.90
2023-03-02T16:09:30.908Z,99.90
2023-03-02T16:11:58.449Z,99.90
2023-03-02T16:14:26.068Z,99.90
2023-03-02T16:16:53.349Z,99.90
2023-03-02T16:19:20.704Z,99.90
2023-03-02T16:21:48.445Z,99.90
2023-03-02T16:24:16.877Z,99.90
2023-03-02T16:26:44.979Z,99.90
2023-03-02T16:29:13.812Z,99.90
2023-03-02T16:31:41.733Z,99.90
2023-03-02T16:34:09.932Z,99.90
2023-03-02T16:36:39.858Z,99.90
2023-03-02T16:39:09.526Z,99.90
2023-03-02T16:41:39.988Z,99.90
2023-03-02T16:44:07.919Z,99.90
2023-03-02T16:46:39.860Z,99.90
2023-03-02T16:49:07.313Z,99.90
2023-03-02T16:51:36.174Z,99.90
2023-03-02T16:54:09.053Z,99.90
2023-03-02T16:56:36.296Z,99.90
2023-03-02T16:59:03.622Z,99.90
2023-03-02T17:01:30.873Z,99.90
2023-03-02T17:03:58.230Z,99.90
2023-03-02T17:06:25.639Z,99.90
2023-03-02T17:08:53.043Z,99.90
2023-03-02T17:11:20.796Z,99.90
2023-03-02T17:13:48.064Z,99.90
2023-03-02T17:16:16.741Z,99.90
2023-03-02T17:18:47.008Z,99.90
2023-03-02T17:21:16.581Z,99.90
2023-03-02T17:23:47.821Z,99.90
2023-03-02T17:26:17.309Z,99.90
2023-03-02T17:28:44.856Z,99.90
2023-03-02T17:31:12.267Z,99.90
2023-03-02T17:33:48.389Z,99.90
2023-03-02T17:36:15.752Z,99.90
2023-03-02T17:38:43.211Z,99.90
2023-03-02T17:41:11.579Z,99.90
2023-03-02T17:43:41.707Z,99.90
2023-03-02T17:46:22.953Z,99.90
2023-03-02T17:49:02.374Z,99.90
2023-03-02T17:51:30.256Z,99.90
2023-03-02T17:53:57.479Z,99.90
2023-03-02T17:56:27.465Z,99.90
2023-03-02T17:58:58.786Z,99.90
2023-03-02T18:01:27.972Z,99.90
2023-03-02T18:03:56.089Z,99.90
2023-03-02T18:06:23.287Z,99.90
2023-03-02T18:08:52.312Z,99.90
2023-03-02T18:11:22.692Z,99.90
2023-03-02T18:13:50.957Z,99.90
2023-03-02T18:16:17.897Z,99.90
2023-03-02T18:18:45.124Z,99.90
2023-03-02T18:21:12.168Z,99.90
2023-03-02T18:23:39.761Z,99.90
2023-03-02T18:26:06.708Z,99.90
2023-03-02T18:28:34.040Z,99.90
2023-03-02T18:31:00.995Z,99.90
2023-03-02T18:33:28.329Z,99.90
2023-03-02T18:35:55.376Z,99.90
2023-03-02T18:38:30.511Z,99.90
2023-03-02T18:41:00.766Z,99.90
2023-03-02T18:43:30.379Z,99.90
2023-03-02T18:45:57.724Z,99.90
2023-03-02T18:48:25.240Z,99.90
2023-03-02T18:50:52.345Z,99.90
2023-03-02T18:53:19.653Z,99.90
2023-03-02T18:55:46.792Z,99.90
2023-03-02T18:58:20.534Z,99.90
2023-03-02T19:00:47.962Z,99.90
2023-03-02T19:03:17.547Z,99.90
2023-03-02T19:05:45.641Z,99.90
2023-03-02T19:08:13.104Z,99.90
2023-03-02T19:10:42.217Z,99.90
2023-03-02T19:13:11.521Z,99.90
2023-03-02T19:15:40.169Z,99.90
2023-03-02T19:18:08.013Z,99.90
2023-03-02T19:20:35.620Z,99.90
2023-03-02T19:23:03.168Z,99.90
2023-03-02T19:25:30.080Z,99.90
2023-03-02T19:27:57.431Z,99.90
2023-03-02T19:30:26.882Z,99.90
2023-03-02T19:32:55.208Z,99.90
2023-03-02T19:35:26.658Z,99.90
2023-03-02T19:37:54.161Z,99.90
2023-03-02T19:40:25.050Z,99.90
2023-03-02T19:42:54.170Z,99.90
2023-03-02T19:45:27.179Z,99.90
2023-03-02T19:47:57.693Z,99.90
2023-03-02T19:50:26.442Z,99.90
2023-03-02T19:52:54.824Z,99.90
2023-03-02T19:55:24.302Z,99.90
2023-03-02T19:57:59.420Z,99.90
2023-03-02T20:00:30.087Z,99.90
2023-03-02T20:02:58.272Z,99.90
2023-03-02T20:05:38.716Z,99.90
2023-03-02T20:08:07.915Z,99.90
2023-03-02T20:10:40.432Z,99.90
2023-03-02T20:13:09.248Z,99.90
2023-03-02T20:15:44.567Z,99.90
2023-03-02T20:18:16.870Z,99.90
2023-03-02T20:20:45.558Z,99.90
2023-03-02T20:23:14.456Z,99.90
2023-03-02T20:25:41.840Z,99.90
2023-03-02T20:28:13.481Z,99.90
2023-03-02T20:30:50.491Z,99.90
2023-03-02T20:33:21.162Z,99.90
2023-03-02T20:35:48.820Z,99.90
2023-03-02T20:38:30.703Z,99.90
2023-03-02T20:40:58.057Z,99.90
2023-03-02T20:43:26.198Z,99.90
2023-03-02T20:45:54.229Z,99.90
2023-03-02T20:48:22.258Z,99.90
2023-03-02T20:50:51.338Z,99.90
2023-03-02T20:53:20.075Z,99.90
2023-03-02T20:55:47.712Z,99.90
2023-03-02T20:58:15.128Z,99.90
2023-03-02T21:00:42.279Z,99.90
2023-03-02T21:03:09.800Z,99.90
2023-03-02T21:05:40.728Z,99.90
2023-03-02T21:08:14.641Z,99.90
2023-03-02T21:10:43.731Z,99.90
2023-03-02T21:13:11.788Z,99.90
2023-03-02T21:15:41.050Z,99.90
2023-03-02T21:18:08.513Z,99.90
2023-03-02T21:20:35.934Z,99.90
2023-03-02T21:23:04.216Z,99.90
2023-03-02T21:25:31.839Z,99.90
2023-03-02T21:27:59.284Z,99.90
2023-03-02T21:30:35.290Z,99.90
2023-03-02T21:33:03.674Z,99.90
2023-03-02T21:35:31.238Z,99.90
2023-03-02T21:38:04.663Z,99.90
2023-03-02T21:40:37.709Z,99.90
2023-03-02T21:43:06.633Z,99.90
2023-03-02T21:45:35.621Z,99.90
2023-03-02T21:48:05.007Z,99.90
2023-03-02T21:50:36.459Z,99.90
2023-03-02T21:53:05.005Z,99.90
2023-03-02T21:55:32.341Z,99.90
2023-03-02T21:57:59.806Z,99.90
2023-03-02T22:00:38.600Z,99.90
2023-03-02T22:03:07.704Z,99.90
2023-03-02T22:05:35.394Z,99.90
2023-03-02T22:08:03.018Z,99.90
2023-03-02T22:10:46.218Z,99.90
2023-03-02T22:13:30.468Z,99.90
2023-03-02T22:16:36.908Z,99.90
2023-03-02T22:19:24.425Z,99.90
2023-03-02T22:21:53.250Z,99.90
2023-03-02T22:24:24.830Z,99.90
2023-03-02T22:27:27.135Z,99.90
2023-03-02T22:29:58.920Z,99.90
2023-03-02T22:32:33.888Z,99.90
2023-03-02T22:35:21.993Z,99.90
2023-03-02T22:37:51.877Z,99.90
2023-03-02T22:40:30.279Z,99.90
2023-03-02T22:43:35.678Z,99.90
2023-03-02T22:46:15.379Z,99.90
2023-03-02T22:48:46.261Z,99.90
2023-03-02T22:51:22.175Z,99.90
2023-03-02T22:53:55.942Z,99.90
2023-03-02T22:56:25.845Z,99.90
2023-03-02T22:58:53.473Z,99.90
2023-03-02T23:01:29.372Z,99.90
2023-03-02T23:04:08.398Z,99.90
2023-03-02T23:06:45.264Z,99.90
2023-03-02T23:09:17.554Z,99.90
2023-03-02T23:11:45.447Z,99.90
2023-03-02T23:14:51.661Z,99.90
2023-03-02T23:17:26.984Z,99.90
2023-03-02T23:19:54.012Z,99.90
2023-03-02T23:22:21.237Z,99.90
2023-03-02T23:24:48.262Z,99.90
2023-03-02T23:27:15.457Z,99.90
2023-03-02T23:29:42.448Z,99.90
2023-03-02T23:32:09.874Z,99.90
2023-03-02T23:34:37.070Z,99.90
2023-03-02T23:37:04.765Z,99.90
2023-03-02T23:39:31.829Z,99.90
2023-03-02T23:42:00.095Z,99.90
2023-03-02T23:44:27.211Z,99.90
2023-03-02T23:46:54.461Z,99.90
2023-03-02T23:49:21.540Z,99.90
2023-03-02T23:51:48.797Z,99.90
2023-03-02T23:54:15.838Z,99.90
2023-03-02T23:56:43.044Z,99.90
2023-03-02T23:59:10.275Z,99.90
